sensor_id;sensor_type;location;lat;lon;timestamp;temperature;humidity
25438;DHT22;13364;49.084;9.978;2023-10-31T05:01:51;9.10;100.00
25438;DHT22;13364;49.084;9.978;2023-10-31T05:04:18;9.10;100.00
25438;DHT22;13364;49.084;9.978;2023-10-31T05:06:46;9.10;100.00
25438;DHT22;13364;49.084;9.978;2023-10-31T05:09:14;9.10;100.00
25438;DHT22;13364;49.084;9.978;2023-10-31T05:11:41;9.00;100.00
25438;DHT22;13364;49.084;9.978;2023-10-31T05:14:09;9.00;100.00
25438;DHT22;13364;49.084;9.978;2023-10-31T05:16:44;9.00;100.00
25438;DHT22;13364;49.084;9.978;2023-10-31T05:19:11;9.00;100.00
25438;DHT22;13364;49.084;9.978;2023-10-31T05:21:38;9.00;100.00
25438;DHT22;13364;49.084;9.978;2023-10-31T05:24:05;8.90;100.00
25438;DHT22;13364;49.084;9.978;2023-10-31T05:26:32;8.90;100.00
25438;DHT22;13364;49.084;9.978;2023-10-31T05:28:59;9.00;100.00
25438;DHT22;13364;49.084;9.978;2023-10-31T05:31:26;9.00;100.00
25438;DHT22;13364;49.084;9.978;2023-10-31T05:33:53;9.00;100.00
25438;DHT22;13364;49.084;9.978;2023-10-31T05:36:23;9.00;100.00
25438;DHT22;13364;49.084;9.978;2023-10-31T05:38:51;9.10;100.00
25438;DHT22;13364;49.084;9.978;2023-10-31T05:41:17;9.10;100.00
25438;DHT22;13364;49.084;9.978;2023-10-31T05:43:44;9.00;100.00
25438;DHT22;13364;49.084;9.978;2023-10-31T05:46:11;9.00;100.00
25438;DHT22;13364;49.084;9.978;2023-10-31T05:48:43;8.90;100.00
25438;DHT22;13364;49.084;9.978;2023-10-31T05:51:18;8.90;100.00
25438;DHT22;13364;49.084;9.978;2023-10-31T05:53:47;8.90;100.00
25438;DHT22;13364;49.084;9.978;2023-10-31T05:56:16;8.80;100.00
25438;DHT22;13364;49.084;9.978;2023-10-31T05:58:43;8.80;100.00
25438;DHT22;13364;49.084;9.978;2023-10-31T06:01:10;8.70;100.00
25438;DHT22;13364;49.084;9.978;2023-10-31T06:03:37;8.70;100.00
25438;DHT22;13364;49.084;9.978;2023-10-31T06:06:07;8.70;100.00
25438;DHT22;13364;49.084;9.978;2023-10-31T06:08:34;8.80;100.00
25438;DHT22;13364;49.084;9.978;2023-10-31T06:11:03;8.70;100.00
25438;DHT22;13364;49.084;9.978;2023-10-31T06:13:30;8.70;100.00
25438;DHT22;13364;49.084;9.978;2023-10-31T06:15:58;8.70;100.00
25438;DHT22;13364;49.084;9.978;2023-10-31T06:18:28;8.70;100.00
25438;DHT22;13364;49.084;9.978;2023-10-31T06:20:55;8.70;100.00
25438;DHT22;13364;49.084;9.978;2023-10-31T06:23:22;8.70;100.00
25438;DHT22;13364;49.084;9.978;2023-10-31T06:25:49;8.70;100.00
25438;DHT22;13364;49.084;9.978;2023-10-31T06:28:16;8.70;100.00
25438;DHT22;13364;49.084;9.978;2023-10-31T06:30:43;8.60;100.00
25438;DHT22;13364;49.084;9.978;2023-10-31T06:33:10;8.60;100.00
25438;DHT22;13364;49.084;9.978;2023-10-31T06:35:37;8.60;100.00
25438;DHT22;13364;49.084;9.978;2023-10-31T06:38:04;8.60;100.00
25438;DHT22;13364;49.084;9.978;2023-10-31T06:40:31;8.60;100.00
25438;DHT22;13364;49.084;9.978;2023-10-31T06:42:58;8.60;100.00
25438;DHT22;13364;49.084;9.978;2023-10-31T06:45:25;8.60;100.00
25438;DHT22;13364;49.084;9.978;2023-10-31T06:47:52;8.70;100.00
25438;DHT22;13364;49.084;9.978;2023-10-31T06:50:19;8.80;100.00
25438;DHT22;13364;49.084;9.978;2023-10-31T06:52:46;8.90;100.00
25438;DHT22;13364;49.084;9.978;2023-10-31T06:55:13;8.90;100.00
25438;DHT22;13364;49.084;9.978;2023-10-31T06:57:40;8.90;100.00
25438;DHT22;13364;49.084;9.978;2023-10-31T07:00:08;8.90;100.00
25438;DHT22;13364;49.084;9.978;2023-10-31T07:02:36;9.00;100.00
25438;DHT22;13364;49.084;9.978;2023-10-31T07:05:03;9.00;100.00
25438;DHT22;13364;49.084;9.978;2023-10-31T07:07:30;9.00;100.00
25438;DHT22;13364;49.084;9.978;2023-10-31T07:09:57;9.00;100.00
25438;DHT22;13364;49.084;9.978;2023-10-31T07:12:24;9.00;100.00
25438;DHT22;13364;49.084;9.978;2023-10-31T07:14:51;9.10;100.00
25438;DHT22;13364;49.084;9.978;2023-10-31T07:17:18;9.10;100.00
25438;DHT22;13364;49.084;9.978;2023-10-31T07:19:45;9.10;100.00
25438;DHT22;13364;49.084;9.978;2023-10-31T07:22:11;9.10;100.00
25438;DHT22;13364;49.084;9.978;2023-10-31T07:24:38;9.10;100.00
25438;DHT22;13364;49.084;9.978;2023-10-31T07:27:05;9.20;100.00
25438;DHT22;13364;49.084;9.978;2023-10-31T07:29:32;9.20;100.00
25438;DHT22;13364;49.084;9.978;2023-10-31T07:31:58;9.20;100.00
25438;DHT22;13364;49.084;9.978;2023-10-31T07:34:25;9.20;100.00
25438;DHT22;13364;49.084;9.978;2023-10-31T07:36:53;9.20;100.00
25438;DHT22;13364;49.084;9.978;2023-10-31T07:39:20;9.20;100.00
25438;DHT22;13364;49.084;9.978;2023-10-31T07:41:47;9.20;100.00
25438;DHT22;13364;49.084;9.978;2023-10-31T07:44:14;9.30;100.00
25438;DHT22;13364;49.084;9.978;2023-10-31T07:46:40;9.30;100.00
25438;DHT22;13364;49.084;9.978;2023-10-31T07:49:07;9.30;100.00
25438;DHT22;13364;49.084;9.978;2023-10-31T07:51:34;9.30;100.00
25438;DHT22;13364;49.084;9.978;2023-10-31T07:54:01;9.40;100.00
25438;DHT22;13364;49.084;9.978;2023-10-31T07:56:28;9.40;99.80
25438;DHT22;13364;49.084;9.978;2023-10-31T07:58:55;9.40;100.00
25438;DHT22;13364;49.084;9.978;2023-10-31T08:01:22;9.40;99.90
25438;DHT22;13364;49.084;9.978;2023-10-31T08:03:49;9.50;99.70
25438;DHT22;13364;49.084;9.978;2023-10-31T08:06:16;9.50;99.90
25438;DHT22;13364;49.084;9.978;2023-10-31T08:08:43;9.50;99.60
25438;DHT22;13364;49.084;9.978;2023-10-31T08:11:10;9.50;98.90
25438;DHT22;13364;49.084;9.978;2023-10-31T08:13:38;9.40;98.60
25438;DHT22;13364;49.084;9.978;2023-10-31T08:16:06;9.30;99.20
25438;DHT22;13364;49.084;9.978;2023-10-31T08:18:34;9.30;99.80
25438;DHT22;13364;49.084;9.978;2023-10-31T08:21:02;9.30;99.90
25438;DHT22;13364;49.084;9.978;2023-10-31T08:23:29;9.40;99.80
25438;DHT22;13364;49.084;9.978;2023-10-31T08:25:56;9.40;99.50
25438;DHT22;13364;49.084;9.978;2023-10-31T08:28:23;9.40;99.60
25438;DHT22;13364;49.084;9.978;2023-10-31T08:30:51;9.50;100.00
25438;DHT22;13364;49.084;9.978;2023-10-31T08:33:18;9.60;100.00
25438;DHT22;13364;49.084;9.978;2023-10-31T08:35:45;9.70;99.60
25438;DHT22;13364;49.084;9.978;2023-10-31T08:38:11;9.70;98.70
25438;DHT22;13364;49.084;9.978;2023-10-31T08:40:52;9.70;98.90
25438;DHT22;13364;49.084;9.978;2023-10-31T08:43:19;9.70;99.20
25438;DHT22;13364;49.084;9.978;2023-10-31T08:45:46;9.70;99.50
25438;DHT22;13364;49.084;9.978;2023-10-31T08:48:13;9.70;99.60
25438;DHT22;13364;49.084;9.978;2023-10-31T08:50:42;9.80;99.70
25438;DHT22;13364;49.084;9.978;2023-10-31T08:53:10;9.80;99.60
25438;DHT22;13364;49.084;9.978;2023-10-31T08:55:37;9.80;99.20
25438;DHT22;13364;49.084;9.978;2023-10-31T08:58:03;9.80;98.80
25438;DHT22;13364;49.084;9.978;2023-10-31T09:00:30;9.90;98.60
25438;DHT22;13364;49.084;9.978;2023-10-31T09:02:57;9.90;98.60
25438;DHT22;13364;49.084;9.978;2023-10-31T09:05:24;10.00;98.30
25438;DHT22;13364;49.084;9.978;2023-10-31T09:07:51;10.00;98.30
25438;DHT22;13364;49.084;9.978;2023-10-31T09:10:17;10.00;98.10
25438;DHT22;13364;49.084;9.978;2023-10-31T09:12:44;10.10;98.20
25438;DHT22;13364;49.084;9.978;2023-10-31T09:15:13;10.00;98.30
25438;DHT22;13364;49.084;9.978;2023-10-31T09:17:40;10.00;98.60
25438;DHT22;13364;49.084;9.978;2023-10-31T09:20:07;10.00;98.80
25438;DHT22;13364;49.084;9.978;2023-10-31T09:22:35;10.00;98.50
25438;DHT22;13364;49.084;9.978;2023-10-31T09:25:02;10.00;98.10
25438;DHT22;13364;49.084;9.978;2023-10-31T09:27:29;10.00;97.80
25438;DHT22;13364;49.084;9.978;2023-10-31T09:29:56;10.00;98.30
25438;DHT22;13364;49.084;9.978;2023-10-31T09:32:22;10.00;98.70
25438;DHT22;13364;49.084;9.978;2023-10-31T09:34:49;10.10;99.00
25438;DHT22;13364;49.084;9.978;2023-10-31T09:37:16;10.10;99.00
25438;DHT22;13364;49.084;9.978;2023-10-31T09:39:43;10.20;99.50
25438;DHT22;13364;49.084;9.978;2023-10-31T09:42:10;10.30;98.00
25438;DHT22;13364;49.084;9.978;2023-10-31T09:44:37;10.20;97.40
25438;DHT22;13364;49.084;9.978;2023-10-31T09:47:06;10.20;97.40
25438;DHT22;13364;49.084;9.978;2023-10-31T09:49:34;10.30;98.00
25438;DHT22;13364;49.084;9.978;2023-10-31T09:52:01;10.30;98.00
25438;DHT22;13364;49.084;9.978;2023-10-31T09:54:28;10.30;97.00
25438;DHT22;13364;49.084;9.978;2023-10-31T09:56:56;10.40;96.80
25438;DHT22;13364;49.084;9.978;2023-10-31T09:59:23;10.50;97.00
25438;DHT22;13364;49.084;9.978;2023-10-31T10:01:49;10.60;96.10
25438;DHT22;13364;49.084;9.978;2023-10-31T10:04:17;10.60;96.00
25438;DHT22;13364;49.084;9.978;2023-10-31T10:07:01;10.60;95.80
25438;DHT22;13364;49.084;9.978;2023-10-31T10:09:29;10.70;95.20
25438;DHT22;13364;49.084;9.978;2023-10-31T10:11:59;10.70;93.80
25438;DHT22;13364;49.084;9.978;2023-10-31T10:14:26;10.70;94.30
25438;DHT22;13364;49.084;9.978;2023-10-31T10:16:55;10.70;93.80
25438;DHT22;13364;49.084;9.978;2023-10-31T10:19:22;10.70;94.50
25438;DHT22;13364;49.084;9.978;2023-10-31T10:21:55;10.70;94.90
25438;DHT22;13364;49.084;9.978;2023-10-31T10:24:23;10.80;94.50
25438;DHT22;13364;49.084;9.978;2023-10-31T10:26:51;10.90;94.50
25438;DHT22;13364;49.084;9.978;2023-10-31T10:29:18;11.00;93.70
25438;DHT22;13364;49.084;9.978;2023-10-31T10:31:45;11.00;92.90
25438;DHT22;13364;49.084;9.978;2023-10-31T10:34:14;11.10;92.10
25438;DHT22;13364;49.084;9.978;2023-10-31T10:36:41;11.10;91.60
25438;DHT22;13364;49.084;9.978;2023-10-31T10:39:21;11.10;91.30
25438;DHT22;13364;49.084;9.978;2023-10-31T10:41:54;11.20;91.30
25438;DHT22;13364;49.084;9.978;2023-10-31T10:44:34;11.20;92.30
25438;DHT22;13364;49.084;9.978;2023-10-31T10:47:05;11.20;91.80
25438;DHT22;13364;49.084;9.978;2023-10-31T10:49:37;11.20;91.20
25438;DHT22;13364;49.084;9.978;2023-10-31T10:52:23;11.30;91.20
25438;DHT22;13364;49.084;9.978;2023-10-31T10:55:04;11.40;92.40
25438;DHT22;13364;49.084;9.978;2023-10-31T10:57:38;11.50;91.90
25438;DHT22;13364;49.084;9.978;2023-10-31T11:00:06;11.60;91.20
25438;DHT22;13364;49.084;9.978;2023-10-31T11:02:40;11.60;89.60
25438;DHT22;13364;49.084;9.978;2023-10-31T11:05:09;11.70;90.20
25438;DHT22;13364;49.084;9.978;2023-10-31T11:07:40;11.70;89.30
25438;DHT22;13364;49.084;9.978;2023-10-31T11:10:08;11.70;90.10
25438;DHT22;13364;49.084;9.978;2023-10-31T11:12:36;11.70;89.10
25438;DHT22;13364;49.084;9.978;2023-10-31T11:15:04;11.70;87.70
25438;DHT22;13364;49.084;9.978;2023-10-31T11:17:35;11.70;87.80
25438;DHT22;13364;49.084;9.978;2023-10-31T11:20:04;11.60;87.40
25438;DHT22;13364;49.084;9.978;2023-10-31T11:22:42;11.60;88.20
25438;DHT22;13364;49.084;9.978;2023-10-31T11:25:20;11.60;88.80
25438;DHT22;13364;49.084;9.978;2023-10-31T11:28:12;11.70;89.00
25438;DHT22;13364;49.084;9.978;2023-10-31T11:30:40;11.80;89.50
25438;DHT22;13364;49.084;9.978;2023-10-31T11:33:11;11.90;89.00
25438;DHT22;13364;49.084;9.978;2023-10-31T11:35:39;12.00;88.40
25438;DHT22;13364;49.084;9.978;2023-10-31T11:38:11;12.00;88.10
25438;DHT22;13364;49.084;9.978;2023-10-31T11:40:59;12.10;88.50
25438;DHT22;13364;49.084;9.978;2023-10-31T11:43:50;12.20;88.10
25438;DHT22;13364;49.084;9.978;2023-10-31T11:46:27;12.30;90.10
25438;DHT22;13364;49.084;9.978;2023-10-31T11:48:56;12.40;89.90
25438;DHT22;13364;49.084;9.978;2023-10-31T11:51:24;12.50;89.40
25438;DHT22;13364;49.084;9.978;2023-10-31T11:53:51;12.50;86.40
25438;DHT22;13364;49.084;9.978;2023-10-31T11:56:19;12.50;85.90
25438;DHT22;13364;49.084;9.978;2023-10-31T11:59:04;12.50;86.20
25438;DHT22;13364;49.084;9.978;2023-10-31T12:01:31;12.60;85.50
25438;DHT22;13364;49.084;9.978;2023-10-31T12:03:58;12.60;85.10
25438;DHT22;13364;49.084;9.978;2023-10-31T12:06:25;12.50;85.00
25438;DHT22;13364;49.084;9.978;2023-10-31T12:08:52;12.50;84.40
25438;DHT22;13364;49.084;9.978;2023-10-31T12:11:21;12.60;85.70
25438;DHT22;13364;49.084;9.978;2023-10-31T12:13:52;12.60;85.30
25438;DHT22;13364;49.084;9.978;2023-10-31T12:16:27;12.60;83.80
25438;DHT22;13364;49.084;9.978;2023-10-31T12:19:01;12.70;84.80
25438;DHT22;13364;49.084;9.978;2023-10-31T12:24:04;12.70;84.40
25438;DHT22;13364;49.084;9.978;2023-10-31T12:26:33;12.70;84.20
25438;DHT22;13364;49.084;9.978;2023-10-31T12:29:07;12.70;82.90
25438;DHT22;13364;49.084;9.978;2023-10-31T12:31:34;12.70;83.70
25438;DHT22;13364;49.084;9.978;2023-10-31T12:34:05;12.70;83.50
25438;DHT22;13364;49.084;9.978;2023-10-31T12:36:33;12.60;84.50
25438;DHT22;13364;49.084;9.978;2023-10-31T12:39:02;12.70;85.50
25438;DHT22;13364;49.084;9.978;2023-10-31T12:41:29;12.70;85.20
25438;DHT22;13364;49.084;9.978;2023-10-31T12:43:56;12.80;86.70
25438;DHT22;13364;49.084;9.978;2023-10-31T12:46:31;12.80;85.60
25438;DHT22;13364;49.084;9.978;2023-10-31T12:48:58;12.80;85.80
25438;DHT22;13364;49.084;9.978;2023-10-31T12:51:25;12.90;85.40
25438;DHT22;13364;49.084;9.978;2023-10-31T12:53:52;12.90;86.20
25438;DHT22;13364;49.084;9.978;2023-10-31T12:56:39;12.90;85.80
25438;DHT22;13364;49.084;9.978;2023-10-31T12:59:07;12.80;86.40
25438;DHT22;13364;49.084;9.978;2023-10-31T13:01:43;12.80;85.40
25438;DHT22;13364;49.084;9.978;2023-10-31T13:04:10;12.80;85.40
25438;DHT22;13364;49.084;9.978;2023-10-31T13:06:38;12.80;85.60
25438;DHT22;13364;49.084;9.978;2023-10-31T13:09:05;12.70;85.40
25438;DHT22;13364;49.084;9.978;2023-10-31T13:11:40;12.70;87.00
25438;DHT22;13364;49.084;9.978;2023-10-31T13:14:06;12.60;87.20
25438;DHT22;13364;49.084;9.978;2023-10-31T13:16:33;12.50;88.80
25438;DHT22;13364;49.084;9.978;2023-10-31T13:19:01;12.50;89.60
25438;DHT22;13364;49.084;9.978;2023-10-31T13:21:28;12.50;90.00
25438;DHT22;13364;49.084;9.978;2023-10-31T13:23:55;12.50;89.70
25438;DHT22;13364;49.084;9.978;2023-10-31T13:26:22;12.50;90.80
25438;DHT22;13364;49.084;9.978;2023-10-31T13:28:48;12.40;91.10
25438;DHT22;13364;49.084;9.978;2023-10-31T13:31:15;12.40;90.80
25438;DHT22;13364;49.084;9.978;2023-10-31T13:33:43;12.20;90.60
25438;DHT22;13364;49.084;9.978;2023-10-31T13:36:10;12.00;91.00
25438;DHT22;13364;49.084;9.978;2023-10-31T13:38:37;11.80;91.90
25438;DHT22;13364;49.084;9.978;2023-10-31T13:41:05;11.70;92.50
25438;DHT22;13364;49.084;9.978;2023-10-31T13:43:31;11.60;93.60
25438;DHT22;13364;49.084;9.978;2023-10-31T13:45:58;11.50;93.90
25438;DHT22;13364;49.084;9.978;2023-10-31T13:48:25;11.50;94.30
25438;DHT22;13364;49.084;9.978;2023-10-31T13:50:52;11.50;95.00
25438;DHT22;13364;49.084;9.978;2023-10-31T13:53:19;11.50;95.30
25438;DHT22;13364;49.084;9.978;2023-10-31T13:55:46;11.50;95.60
25438;DHT22;13364;49.084;9.978;2023-10-31T13:58:12;11.50;95.90
25438;DHT22;13364;49.084;9.978;2023-10-31T14:00:39;11.60;95.60
25438;DHT22;13364;49.084;9.978;2023-10-31T14:03:06;11.50;95.10
25438;DHT22;13364;49.084;9.978;2023-10-31T14:05:33;11.50;95.60
25438;DHT22;13364;49.084;9.978;2023-10-31T14:08:00;11.50;95.90
25438;DHT22;13364;49.084;9.978;2023-10-31T14:10:27;11.50;96.50
25438;DHT22;13364;49.084;9.978;2023-10-31T14:12:54;11.50;96.20
25438;DHT22;13364;49.084;9.978;2023-10-31T14:15:22;11.50;96.10
25438;DHT22;13364;49.084;9.978;2023-10-31T14:17:50;11.40;96.40
25438;DHT22;13364;49.084;9.978;2023-10-31T14:20:17;11.40;96.50
25438;DHT22;13364;49.084;9.978;2023-10-31T14:22:49;11.40;96.60
25438;DHT22;13364;49.084;9.978;2023-10-31T14:25:19;11.40;96.90
25438;DHT22;13364;49.084;9.978;2023-10-31T14:27:52;11.40;97.00
25438;DHT22;13364;49.084;9.978;2023-10-31T14:30:22;11.30;97.20
25438;DHT22;13364;49.084;9.978;2023-10-31T14:32:50;11.30;97.60
25438;DHT22;13364;49.084;9.978;2023-10-31T14:35:23;11.40;97.80
25438;DHT22;13364;49.084;9.978;2023-10-31T14:37:53;11.40;97.60
25438;DHT22;13364;49.084;9.978;2023-10-31T14:40:22;11.50;97.50
25438;DHT22;13364;49.084;9.978;2023-10-31T14:42:57;11.50;97.30
25438;DHT22;13364;49.084;9.978;2023-10-31T14:45:27;11.60;97.10
25438;DHT22;13364;49.084;9.978;2023-10-31T14:47:56;11.60;97.10
25438;DHT22;13364;49.084;9.978;2023-10-31T14:50:27;11.60;96.90
25438;DHT22;13364;49.084;9.978;2023-10-31T14:52:57;11.70;96.60
25438;DHT22;13364;49.084;9.978;2023-10-31T14:55:26;11.60;96.50
25438;DHT22;13364;49.084;9.978;2023-10-31T14:57:54;11.60;96.70
25438;DHT22;13364;49.084;9.978;2023-10-31T15:00:23;11.60;96.90
25438;DHT22;13364;49.084;9.978;2023-10-31T15:02:52;11.70;97.30
25438;DHT22;13364;49.084;9.978;2023-10-31T15:05:22;11.70;97.70
25438;DHT22;13364;49.084;9.978;2023-10-31T15:07:51;11.60;97.40
25438;DHT22;13364;49.084;9.978;2023-10-31T15:10:22;11.60;97.30
25438;DHT22;13364;49.084;9.978;2023-10-31T15:12:52;11.70;97.60
25438;DHT22;13364;49.084;9.978;2023-10-31T15:15:20;11.60;97.60
25438;DHT22;13364;49.084;9.978;2023-10-31T15:17:48;11.60;97.80
25438;DHT22;13364;49.084;9.978;2023-10-31T15:20:16;11.70;97.80
25438;DHT22;13364;49.084;9.978;2023-10-31T15:22:46;11.70;97.90
25438;DHT22;13364;49.084;9.978;2023-10-31T15:25:15;11.60;98.10
25438;DHT22;13364;49.084;9.978;2023-10-31T15:27:42;11.60;97.80
25438;DHT22;13364;49.084;9.978;2023-10-31T15:30:11;11.60;97.60
25438;DHT22;13364;49.084;9.978;2023-10-31T15:32:38;11.60;97.30
25438;DHT22;13364;49.084;9.978;2023-10-31T15:35:06;11.60;97.30
25438;DHT22;13364;49.084;9.978;2023-10-31T15:37:34;11.60;97.50
25438;DHT22;13364;49.084;9.978;2023-10-31T15:40:02;11.60;97.30
25438;DHT22;13364;49.084;9.978;2023-10-31T15:42:30;11.60;97.10
25438;DHT22;13364;49.084;9.978;2023-10-31T15:44:57;11.60;97.10
25438;DHT22;13364;49.084;9.978;2023-10-31T15:47:24;11.50;97.40
25438;DHT22;13364;49.084;9.978;2023-10-31T15:49:51;11.50;97.60
25438;DHT22;13364;49.084;9.978;2023-10-31T15:52:18;11.50;97.70
25438;DHT22;13364;49.084;9.978;2023-10-31T15:54:45;11.50;97.60
25438;DHT22;13364;49.084;9.978;2023-10-31T15:57:12;11.50;97.40
25438;DHT22;13364;49.084;9.978;2023-10-31T15:59:44;11.40;97.60
25438;DHT22;13364;49.084;9.978;2023-10-31T16:02:10;11.40;97.70
25438;DHT22;13364;49.084;9.978;2023-10-31T16:04:38;11.50;97.40
25438;DHT22;13364;49.084;9.978;2023-10-31T16:07:06;11.50;97.30
25438;DHT22;13364;49.084;9.978;2023-10-31T16:09:36;11.50;97.30
25438;DHT22;13364;49.084;9.978;2023-10-31T16:12:03;11.40;97.20
25438;DHT22;13364;49.084;9.978;2023-10-31T16:14:32;11.40;97.20
25438;DHT22;13364;49.084;9.978;2023-10-31T16:17:00;11.40;97.30
25438;DHT22;13364;49.084;9.978;2023-10-31T16:19:27;11.40;97.20
25438;DHT22;13364;49.084;9.978;2023-10-31T16:21:54;11.40;97.10
25438;DHT22;13364;49.084;9.978;2023-10-31T16:24:22;11.40;97.00
25438;DHT22;13364;49.084;9.978;2023-10-31T16:26:49;11.30;96.90
25438;DHT22;13364;49.084;9.978;2023-10-31T16:29:16;11.30;96.80
25438;DHT22;13364;49.084;9.978;2023-10-31T16:31:43;11.30;96.70
25438;DHT22;13364;49.084;9.978;2023-10-31T16:34:12;11.30;96.50
25438;DHT22;13364;49.084;9.978;2023-10-31T16:36:39;11.30;96.40
25438;DHT22;13364;49.084;9.978;2023-10-31T16:39:06;11.20;96.50
25438;DHT22;13364;49.084;9.978;2023-10-31T16:41:33;11.20;96.40
25438;DHT22;13364;49.084;9.978;2023-10-31T16:44:00;11.20;96.50
25438;DHT22;13364;49.084;9.978;2023-10-31T16:46:27;11.20;96.50
25438;DHT22;13364;49.084;9.978;2023-10-31T16:48:55;11.20;96.60
25438;DHT22;13364;49.084;9.978;2023-10-31T16:51:22;11.20;96.60
25438;DHT22;13364;49.084;9.978;2023-10-31T16:53:49;11.20;96.60
25438;DHT22;13364;49.084;9.978;2023-10-31T16:56:17;11.20;96.70
25438;DHT22;13364;49.084;9.978;2023-10-31T16:58:44;11.20;96.80
25438;DHT22;13364;49.084;9.978;2023-10-31T17:01:13;11.20;97.00
25438;DHT22;13364;49.084;9.978;2023-10-31T17:03:40;11.20;97.00
25438;DHT22;13364;49.084;9.978;2023-10-31T17:06:08;11.10;97.10
25438;DHT22;13364;49.084;9.978;2023-10-31T17:08:39;11.10;97.20
25438;DHT22;13364;49.084;9.978;2023-10-31T17:11:07;11.10;97.30
25438;DHT22;13364;49.084;9.978;2023-10-31T17:13:34;11.10;97.50
25438;DHT22;13364;49.084;9.978;2023-10-31T17:16:03;11.10;97.70
25438;DHT22;13364;49.084;9.978;2023-10-31T17:18:30;11.10;98.00
25438;DHT22;13364;49.084;9.978;2023-10-31T17:20:58;11.10;98.10
25438;DHT22;13364;49.084;9.978;2023-10-31T17:23:25;11.10;98.30
25438;DHT22;13364;49.084;9.978;2023-10-31T17:25:52;11.10;98.30
25438;DHT22;13364;49.084;9.978;2023-10-31T17:28:20;11.10;98.40
25438;DHT22;13364;49.084;9.978;2023-10-31T17:30:48;11.10;98.40
25438;DHT22;13364;49.084;9.978;2023-10-31T17:33:15;11.10;98.60
25438;DHT22;13364;49.084;9.978;2023-10-31T17:35:43;11.10;98.50
25438;DHT22;13364;49.084;9.978;2023-10-31T17:38:11;11.10;98.50
25438;DHT22;13364;49.084;9.978;2023-10-31T17:40:38;11.10;98.30
25438;DHT22;13364;49.084;9.978;2023-10-31T17:43:05;11.10;98.30
25438;DHT22;13364;49.084;9.978;2023-10-31T17:45:33;11.10;98.50
25438;DHT22;13364;49.084;9.978;2023-10-31T17:48:00;11.10;98.50
25438;DHT22;13364;49.084;9.978;2023-10-31T17:50:27;11.00;98.60
25438;DHT22;13364;49.084;9.978;2023-10-31T17:52:59;11.00;98.70
25438;DHT22;13364;49.084;9.978;2023-10-31T17:55:28;11.00;98.90
25438;DHT22;13364;49.084;9.978;2023-10-31T17:57:55;11.00;98.80
25438;DHT22;13364;49.084;9.978;2023-10-31T18:00:23;10.90;98.90
25438;DHT22;13364;49.084;9.978;2023-10-31T18:02:50;10.90;99.10
25438;DHT22;13364;49.084;9.978;2023-10-31T18:05:18;10.90;99.10
25438;DHT22;13364;49.084;9.978;2023-10-31T18:07:45;10.90;99.30
25438;DHT22;13364;49.084;9.978;2023-10-31T18:10:12;10.80;99.40
25438;DHT22;13364;49.084;9.978;2023-10-31T18:12:40;10.80;99.60
25438;DHT22;13364;49.084;9.978;2023-10-31T18:15:08;10.70;99.70
25438;DHT22;13364;49.084;9.978;2023-10-31T18:17:35;10.70;100.00
25438;DHT22;13364;49.084;9.978;2023-10-31T18:20:04;10.80;100.00
25438;DHT22;13364;49.084;9.978;2023-10-31T18:22:32;10.80;99.90
25438;DHT22;13364;49.084;9.978;2023-10-31T18:25:02;10.70;99.90
25438;DHT22;13364;49.084;9.978;2023-10-31T18:27:29;10.70;99.90
25438;DHT22;13364;49.084;9.978;2023-10-31T18:29:56;10.70;99.70
25438;DHT22;13364;49.084;9.978;2023-10-31T18:32:23;10.70;99.90
25438;DHT22;13364;49.084;9.978;2023-10-31T18:34:51;10.70;99.90
25438;DHT22;13364;49.084;9.978;2023-10-31T18:37:18;10.70;99.90
25438;DHT22;13364;49.084;9.978;2023-10-31T18:39:45;10.80;100.00
25438;DHT22;13364;49.084;9.978;2023-10-31T18:42:13;10.80;99.90
25438;DHT22;13364;49.084;9.978;2023-10-31T18:44:41;10.80;99.80
25438;DHT22;13364;49.084;9.978;2023-10-31T18:47:20;10.90;99.80
25438;DHT22;13364;49.084;9.978;2023-10-31T18:49:50;10.90;99.60
25438;DHT22;13364;49.084;9.978;2023-10-31T18:52:17;10.90;99.60
25438;DHT22;13364;49.084;9.978;2023-10-31T18:54:44;10.90;99.60
25438;DHT22;13364;49.084;9.978;2023-10-31T18:57:12;10.90;99.60
25438;DHT22;13364;49.084;9.978;2023-10-31T18:59:40;10.90;99.30
25438;DHT22;13364;49.084;9.978;2023-10-31T19:02:08;11.00;99.10
25438;DHT22;13364;49.084;9.978;2023-10-31T19:04:35;11.00;98.80
25438;DHT22;13364;49.084;9.978;2023-10-31T19:07:03;11.00;98.60
25438;DHT22;13364;49.084;9.978;2023-10-31T19:09:30;11.00;98.50
25438;DHT22;13364;49.084;9.978;2023-10-31T19:11:57;11.00;98.30
25438;DHT22;13364;49.084;9.978;2023-10-31T19:14:24;11.00;98.20
25438;DHT22;13364;49.084;9.978;2023-10-31T19:16:52;11.00;98.10
25438;DHT22;13364;49.084;9.978;2023-10-31T19:19:19;11.00;98.20
25438;DHT22;13364;49.084;9.978;2023-10-31T19:21:47;11.00;98.20
25438;DHT22;13364;49.084;9.978;2023-10-31T19:24:15;10.90;98.40
25438;DHT22;13364;49.084;9.978;2023-10-31T19:26:43;10.90;98.80
25438;DHT22;13364;49.084;9.978;2023-10-31T19:29:11;10.90;99.00
25438;DHT22;13364;49.084;9.978;2023-10-31T19:31:39;10.80;99.20
25438;DHT22;13364;49.084;9.978;2023-10-31T19:34:07;10.80;99.30
25438;DHT22;13364;49.084;9.978;2023-10-31T19:36:35;10.80;99.60
25438;DHT22;13364;49.084;9.978;2023-10-31T19:39:02;10.70;99.80
25438;DHT22;13364;49.084;9.978;2023-10-31T19:41:32;10.70;100.00
25438;DHT22;13364;49.084;9.978;2023-10-31T19:44:00;10.60;100.00
25438;DHT22;13364;49.084;9.978;2023-10-31T19:46:27;10.50;100.00
25438;DHT22;13364;49.084;9.978;2023-10-31T19:48:54;10.50;100.00
25438;DHT22;13364;49.084;9.978;2023-10-31T19:51:22;10.50;100.00
25438;DHT22;13364;49.084;9.978;2023-10-31T19:53:49;10.50;100.00
25438;DHT22;13364;49.084;9.978;2023-10-31T19:56:20;10.50;100.00
25438;DHT22;13364;49.084;9.978;2023-10-31T19:58:47;10.50;100.00
25438;DHT22;13364;49.084;9.978;2023-10-31T20:01:15;10.50;100.00
25438;DHT22;13364;49.084;9.978;2023-10-31T20:03:42;10.40;100.00
25438;DHT22;13364;49.084;9.978;2023-10-31T20:06:10;10.40;100.00
25438;DHT22;13364;49.084;9.978;2023-10-31T20:08:37;10.40;100.00
25438;DHT22;13364;49.084;9.978;2023-10-31T20:11:05;10.40;100.00
25438;DHT22;13364;49.084;9.978;2023-10-31T20:13:38;10.40;100.00
25438;DHT22;13364;49.084;9.978;2023-10-31T20:16:06;10.40;100.00
25438;DHT22;13364;49.084;9.978;2023-10-31T20:18:34;10.40;100.00
25438;DHT22;13364;49.084;9.978;2023-10-31T20:21:02;10.40;100.00
25438;DHT22;13364;49.084;9.978;2023-10-31T20:23:29;10.40;100.00
25438;DHT22;13364;49.084;9.978;2023-10-31T20:25:56;10.40;100.00
25438;DHT22;13364;49.084;9.978;2023-10-31T20:28:24;10.30;100.00
25438;DHT22;13364;49.084;9.978;2023-10-31T20:30:51;10.30;100.00
25438;DHT22;13364;49.084;9.978;2023-10-31T20:33:18;10.30;100.00
25438;DHT22;13364;49.084;9.978;2023-10-31T20:35:46;10.40;100.00
25438;DHT22;13364;49.084;9.978;2023-10-31T20:38:13;10.40;100.00
25438;DHT22;13364;49.084;9.978;2023-10-31T20:40:40;10.40;100.00